createdAt,value
2018-03-04T00:01:39.392Z,25.00
2018-03-04T00:04:06.873Z,30.17
2018-03-04T00:06:34.361Z,23.87
2018-03-04T00:09:01.856Z,22.35
2018-03-04T00:11:29.335Z,34.78
2018-03-04T00:13:56.889Z,28.25
2018-03-04T00:16:24.357Z,26.87
2018-03-04T00:18:51.829Z,25.20
2018-03-04T00:21:19.352Z,26.27
2018-03-04T00:23:46.832Z,26.87
2018-03-04T00:26:14.291Z,18.75
2018-03-04T00:28:41.814Z,23.42
2018-03-04T00:31:09.289Z,21.27
2018-03-04T00:33:36.803Z,23.25
2018-03-04T00:36:04.305Z,23.98
2018-03-04T00:38:31.786Z,14.05
2018-03-04T00:40:59.262Z,16.35
2018-03-04T00:43:26.774Z,22.10
2018-03-04T00:45:54.258Z,29.20
2018-03-04T00:48:21.754Z,22.73
2018-03-04T00:50:49.254Z,26.98
2018-03-04T00:53:16.727Z,23.73
2018-03-04T00:55:44.273Z,27.37
2018-03-04T00:58:11.834Z,21.27
2018-03-04T01:00:39.330Z,30.35
2018-03-04T01:03:06.801Z,25.42
2018-03-04T01:05:34.285Z,20.10
2018-03-04T01:08:01.860Z,18.75
2018-03-04T01:10:29.339Z,30.70
2018-03-04T01:12:56.822Z,29.80
2018-03-04T01:15:24.406Z,24.05
2018-03-04T01:17:51.879Z,22.90
2018-03-04T01:20:19.457Z,27.37
2018-03-04T01:22:47.016Z,27.37
2018-03-04T01:25:14.497Z,26.02
2018-03-04T01:27:41.991Z,25.92
2018-03-04T01:30:09.573Z,21.12
2018-03-04T01:32:37.037Z,28.40
2018-03-04T01:35:04.531Z,23.85
2018-03-04T01:37:32.065Z,29.67
2018-03-04T01:39:59.550Z,25.37
2018-03-04T01:42:27.025Z,27.15
2018-03-04T01:44:54.544Z,27.25
2018-03-04T01:47:22.021Z,25.65
2018-03-04T01:49:49.525Z,27.40
2018-03-04T01:52:17.077Z,25.25
2018-03-04T01:54:44.559Z,23.67
2018-03-04T01:57:12.098Z,26.23
2018-03-04T01:59:39.598Z,24.58
2018-03-04T02:02:07.070Z,22.98
2018-03-04T02:04:34.565Z,26.48
2018-03-04T02:07:02.046Z,26.90
2018-03-04T02:09:29.579Z,26.30
2018-03-04T02:11:57.050Z,25.45
2018-03-04T02:14:24.521Z,28.20
2018-03-04T02:16:52.013Z,25.67
2018-03-04T02:19:19.498Z,26.48
2018-03-04T02:21:46.982Z,29.00
2018-03-04T02:24:14.459Z,28.38
2018-03-04T02:26:41.955Z,26.12
2018-03-04T02:29:09.430Z,28.12
2018-03-04T02:31:36.899Z,27.10
2018-03-04T02:34:04.423Z,26.87
2018-03-04T02:36:31.967Z,26.30
2018-03-04T02:38:59.420Z,30.67
2018-03-04T02:41:26.927Z,24.40
2018-03-04T02:43:54.407Z,23.55
2018-03-04T02:46:21.888Z,28.70
2018-03-04T02:48:49.400Z,22.75
2018-03-04T02:51:16.907Z,18.87
2018-03-04T02:53:44.399Z,26.45
2018-03-04T02:56:11.912Z,28.52
2018-03-04T02:58:39.438Z,26.10
2018-03-04T03:01:06.912Z,24.98
2018-03-04T03:03:34.397Z,26.58
2018-03-04T03:06:01.912Z,18.30
2018-03-04T03:11:03.181Z,27.95
2018-03-04T03:13:30.653Z,26.65
2018-03-04T03:15:58.190Z,25.50
2018-03-04T03:18:25.699Z,28.55
2018-03-04T03:20:53.172Z,22.00
2018-03-04T03:23:20.642Z,28.80
2018-03-04T03:25:48.132Z,29.15
2018-03-04T03:28:15.616Z,29.80
2018-03-04T03:30:43.135Z,24.50
2018-03-04T03:33:10.638Z,28.20
2018-03-04T03:35:38.105Z,29.85
2018-03-04T03:38:05.582Z,19.92
2018-03-04T03:40:33.065Z,28.55
2018-03-04T03:43:00.669Z,32.30
2018-03-04T03:45:28.166Z,25.90
2018-03-04T03:47:55.687Z,27.20
2018-03-04T03:50:23.174Z,31.73
2018-03-04T03:52:50.673Z,30.52
2018-03-04T03:55:18.259Z,32.28
2018-03-04T03:57:46.471Z,28.15
2018-03-04T04:00:13.979Z,28.83
2018-03-04T04:02:41.457Z,28.15
2018-03-04T04:05:08.984Z,29.70
2018-03-04T04:07:36.471Z,25.17
2018-03-04T04:10:03.987Z,27.33
2018-03-04T04:12:31.556Z,26.80
2018-03-04T04:14:59.020Z,28.90
2018-03-04T04:17:26.552Z,26.15
2018-03-04T04:19:54.011Z,30.48
2018-03-04T04:22:21.478Z,21.35
2018-03-04T04:24:49.041Z,29.73
2018-03-04T04:27:16.510Z,28.62
2018-03-04T04:29:43.978Z,31.25
2018-03-04T04:32:11.527Z,34.70
2018-03-04T04:34:39.017Z,30.37
2018-03-04T04:37:06.578Z,29.12
2018-03-04T04:39:34.046Z,30.05
2018-03-04T04:42:01.528Z,29.37
2018-03-04T04:44:29.055Z,26.95
2018-03-04T04:46:56.524Z,28.35
2018-03-04T04:49:23.999Z,28.70
2018-03-04T04:51:51.499Z,28.15
2018-03-04T04:54:18.975Z,30.60
2018-03-04T04:56:46.449Z,28.40
2018-03-04T04:59:14.034Z,27.05
2018-03-04T05:01:41.533Z,32.38
2018-03-04T05:04:09.006Z,30.37
2018-03-04T05:06:36.530Z,29.77
2018-03-04T05:09:04.013Z,24.45
2018-03-04T05:11:31.534Z,32.17
2018-03-04T05:13:59.249Z,28.40
2018-03-04T05:16:26.773Z,29.90
2018-03-04T05:18:54.345Z,27.55
2018-03-04T05:21:21.826Z,32.92
2018-03-04T05:23:49.889Z,31.58
2018-03-04T05:26:17.390Z,21.25
2018-03-04T05:28:44.890Z,30.10
2018-03-04T05:31:12.430Z,25.12
2018-03-04T05:33:39.982Z,24.90
2018-03-04T05:36:07.550Z,17.33
2018-03-04T05:38:35.054Z,26.12
2018-03-04T05:41:02.580Z,24.77
2018-03-04T05:43:30.066Z,25.37
2018-03-04T05:45:57.543Z,29.67
2018-03-04T05:48:25.036Z,22.42
2018-03-04T05:50:52.505Z,25.00
2018-03-04T05:53:19.976Z,27.70
2018-03-04T05:55:47.463Z,24.30
2018-03-04T05:58:14.939Z,23.95
2018-03-04T06:00:42.523Z,31.37
2018-03-04T06:03:10.899Z,29.05
2018-03-04T06:05:38.525Z,23.65
2018-03-04T06:08:05.989Z,30.73
2018-03-04T06:10:33.466Z,30.75
2018-03-04T06:13:00.985Z,26.73
2018-03-04T06:15:28.450Z,22.85
2018-03-04T06:17:55.922Z,27.90
2018-03-04T06:20:23.411Z,30.25
2018-03-04T06:22:50.885Z,31.62
2018-03-04T06:25:18.387Z,27.55
2018-03-04T06:27:45.887Z,26.65
2018-03-04T06:30:13.406Z,22.95
2018-03-04T06:32:40.901Z,25.05
2018-03-04T06:35:08.406Z,30.80
2018-03-04T06:37:35.870Z,32.25
2018-03-04T06:40:03.353Z,30.50
2018-03-04T06:42:30.844Z,27.27
2018-03-04T06:44:58.328Z,18.45
2018-03-04T06:47:25.948Z,29.30
2018-03-04T06:49:53.438Z,28.58
2018-03-04T06:52:20.970Z,30.55
2018-03-04T06:54:48.992Z,27.92
2018-03-04T06:57:16.475Z,26.52
2018-03-04T06:59:44.060Z,27.20
2018-03-04T07:02:11.618Z,26.08
2018-03-04T07:04:39.096Z,28.05
2018-03-04T07:07:06.597Z,28.95
2018-03-04T07:09:34.111Z,16.33
2018-03-04T07:12:01.616Z,31.50
2018-03-04T07:14:29.097Z,21.33
2018-03-04T07:16:56.750Z,26.17
2018-03-04T07:19:24.222Z,19.15
2018-03-04T07:21:51.744Z,27.05
2018-03-04T07:24:19.222Z,26.23
2018-03-04T07:26:46.830Z,22.90
2018-03-04T07:29:14.356Z,31.77
2018-03-04T07:31:41.831Z,19.02
2018-03-04T07:34:09.347Z,26.77
2018-03-04T07:36:36.835Z,21.95
2018-03-04T07:39:04.313Z,26.85
2018-03-04T07:41:31.850Z,27.60
2018-03-04T07:43:59.330Z,26.52
2018-03-04T07:46:27.008Z,29.58
2018-03-04T07:48:54.634Z,27.15
2018-03-04T07:51:22.141Z,29.87
2018-03-04T07:53:49.650Z,25.25
2018-03-04T07:56:17.122Z,28.23
2018-03-04T07:58:44.653Z,27.23
2018-03-04T08:01:12.368Z,26.98
2018-03-04T08:03:39.850Z,20.90
2018-03-04T08:06:08.639Z,28.85
2018-03-04T08:08:36.558Z,19.42
2018-03-04T08:11:04.139Z,21.42
2018-03-04T08:13:31.638Z,28.42
2018-03-04T08:15:59.209Z,25.83
2018-03-04T08:18:26.865Z,24.02
2018-03-04T08:20:54.357Z,16.92
2018-03-04T08:23:21.893Z,18.10
2018-03-04T08:25:49.377Z,21.52
2018-03-04T08:28:29.779Z,22.15
2018-03-04T08:30:57.301Z,21.67
2018-03-04T08:33:24.778Z,21.95
2018-03-04T08:35:52.268Z,29.40
2018-03-04T08:38:19.745Z,22.45
2018-03-04T08:40:47.253Z,24.25
2018-03-04T08:43:14.805Z,19.30
2018-03-04T08:45:42.278Z,20.95
2018-03-04T08:48:09.777Z,26.65
2018-03-04T08:50:37.296Z,28.75
2018-03-04T08:53:15.754Z,30.45
2018-03-04T08:55:43.234Z,29.73
2018-03-04T08:58:10.766Z,28.55
2018-03-04T09:00:38.341Z,32.90
2018-03-04T09:03:05.809Z,28.23
2018-03-04T09:05:33.294Z,28.00
2018-03-04T09:08:00.778Z,19.05
2018-03-04T09:10:28.241Z,27.87
2018-03-04T09:12:55.832Z,30.00
2018-03-04T09:15:23.302Z,29.80
2018-03-04T09:17:50.838Z,28.67
2018-03-04T09:20:18.330Z,25.43
2018-03-04T09:22:45.901Z,29.83
2018-03-04T09:25:13.385Z,34.30
2018-03-04T09:27:40.883Z,32.20
2018-03-04T09:30:08.532Z,30.67
2018-03-04T09:32:36.274Z,32.20
2018-03-04T09:35:03.754Z,31.70
2018-03-04T09:37:31.242Z,28.47
2018-03-04T09:39:58.720Z,31.23
2018-03-04T09:42:26.747Z,26.47
2018-03-04T09:44:54.278Z,30.80
2018-03-04T09:47:21.782Z,25.10
2018-03-04T09:49:49.239Z,34.40
2018-03-04T09:52:16.814Z,27.77
2018-03-04T09:54:44.308Z,28.10
2018-03-04T09:57:11.782Z,25.70
2018-03-04T09:59:39.258Z,27.90
2018-03-04T10:02:06.831Z,32.67
2018-03-04T10:04:34.320Z,31.30
2018-03-04T10:07:01.805Z,27.80
2018-03-04T10:09:29.326Z,32.10
2018-03-04T10:11:56.881Z,25.07
2018-03-04T10:14:24.364Z,31.07
2018-03-04T10:16:51.840Z,31.93
2018-03-04T10:19:19.339Z,34.33
2018-03-04T10:21:46.812Z,33.00
2018-03-04T10:24:14.278Z,30.17
2018-03-04T10:26:41.798Z,23.83
2018-03-04T10:29:09.268Z,32.43
2018-03-04T10:31:36.734Z,32.93
2018-03-04T10:34:04.232Z,36.50
2018-03-04T10:36:31.707Z,18.87
2018-03-04T10:38:59.224Z,29.20
2018-03-04T10:41:26.789Z,33.73
2018-03-04T10:43:54.298Z,35.00
2018-03-04T10:46:21.909Z,35.70
2018-03-04T10:48:49.385Z,32.43
2018-03-04T10:51:16.845Z,31.67
2018-03-04T10:53:44.334Z,33.60
2018-03-04T10:56:11.807Z,35.60
2018-03-04T10:58:39.306Z,36.83
2018-03-04T11:01:10.576Z,39.00
2018-03-04T11:03:38.056Z,34.30
2018-03-04T11:06:05.530Z,35.30
2018-03-04T11:08:33.031Z,41.27
2018-03-04T11:11:00.510Z,37.20
2018-03-04T11:13:28.009Z,32.50
2018-03-04T11:15:55.508Z,32.90
2018-03-04T11:18:22.962Z,19.63
2018-03-04T11:20:50.426Z,29.77
2018-03-04T11:23:17.891Z,35.97
2018-03-04T11:25:45.605Z,32.37
2018-03-04T11:28:13.171Z,25.30
2018-03-04T11:30:40.668Z,37.53
2018-03-04T11:33:08.186Z,32.73
2018-03-04T11:35:35.744Z,36.10
2018-03-04T11:38:03.297Z,35.40
2018-03-04T11:40:30.757Z,35.60
2018-03-04T11:42:58.310Z,34.07
2018-03-04T11:45:25.996Z,33.40
2018-03-04T11:47:53.512Z,30.43
2018-03-04T11:50:20.969Z,26.27
2018-03-04T11:52:48.474Z,31.63
2018-03-04T11:55:16.117Z,36.03
2018-03-04T11:57:43.593Z,36.43
2018-03-04T12:00:11.151Z,34.73
2018-03-04T12:02:38.723Z,36.03
2018-03-04T12:05:06.255Z,33.60
2018-03-04T12:07:33.735Z,28.43
2018-03-04T12:10:01.244Z,28.83
2018-03-04T12:12:28.798Z,35.87
2018-03-04T12:14:56.286Z,39.47
2018-03-04T12:17:23.742Z,33.80
2018-03-04T12:19:51.205Z,36.80
2018-03-04T12:22:18.715Z,38.90
2018-03-04T12:24:46.168Z,39.23
2018-03-04T12:27:13.660Z,37.23
2018-03-04T12:29:41.157Z,36.43
2018-03-04T12:32:08.713Z,24.83
2018-03-04T12:34:36.198Z,33.87
2018-03-04T12:37:03.679Z,33.97
2018-03-04T12:39:31.186Z,35.77
2018-03-04T12:41:58.658Z,36.17
2018-03-04T12:44:26.132Z,33.47
2018-03-04T12:46:53.586Z,40.53
2018-03-04T12:49:21.103Z,35.77
2018-03-04T12:51:48.564Z,39.37
2018-03-04T12:54:16.035Z,38.07
2018-03-04T12:56:43.597Z,37.97
2018-03-04T12:59:11.088Z,28.40
2018-03-04T13:01:38.562Z,36.53
2018-03-04T13:04:06.127Z,36.70
2018-03-04T13:06:33.591Z,40.77
2018-03-04T13:09:01.072Z,37.80
2018-03-04T13:11:28.603Z,33.63
2018-03-04T13:13:56.096Z,34.60
2018-03-04T13:16:23.558Z,33.40
2018-03-04T13:18:51.056Z,24.90
2018-03-04T13:21:18.520Z,31.73
2018-03-04T13:23:45.992Z,32.60
2018-03-04T13:26:13.559Z,30.63
2018-03-04T13:28:41.026Z,29.57
2018-03-04T13:31:08.487Z,32.80
2018-03-04T13:33:35.963Z,33.77
2018-03-04T13:36:03.442Z,28.80
2018-03-04T13:38:30.910Z,38.00
2018-03-04T13:40:58.365Z,37.97
2018-03-04T13:43:25.857Z,35.30
2018-03-04T13:45:54.462Z,35.37
2018-03-04T13:48:22.038Z,33.97
2018-03-04T13:50:49.555Z,38.10
2018-03-04T13:53:17.014Z,37.30
2018-03-04T13:55:44.468Z,39.27
2018-03-04T13:58:11.970Z,41.63
2018-03-04T14:00:39.432Z,29.83
2018-03-04T14:03:06.907Z,38.83
2018-03-04T14:05:34.406Z,36.53
2018-03-04T14:08:01.885Z,37.60
2018-03-04T14:10:29.353Z,30.80
2018-03-04T14:12:56.847Z,36.27
2018-03-04T14:15:24.377Z,35.37
2018-03-04T14:17:51.884Z,37.80
2018-03-04T14:20:19.370Z,34.50
2018-03-04T14:22:46.825Z,36.67
2018-03-04T14:25:14.418Z,38.23
2018-03-04T14:27:41.955Z,38.23
2018-03-04T14:30:09.483Z,35.93
2018-03-04T14:32:37.018Z,36.07
2018-03-04T14:35:05.243Z,35.57
2018-03-04T14:37:32.903Z,31.17
2018-03-04T14:40:00.390Z,37.70
2018-03-04T14:42:28.038Z,32.07
2018-03-04T14:44:55.531Z,33.87
2018-03-04T14:47:23.087Z,34.73
2018-03-04T14:49:50.721Z,37.30
2018-03-04T14:52:18.382Z,31.00
2018-03-04T14:54:45.868Z,37.17
2018-03-04T14:57:13.352Z,32.97
2018-03-04T14:59:40.818Z,32.40
2018-03-04T15:02:08.278Z,36.20
2018-03-04T15:04:35.793Z,35.23
2018-03-04T15:07:04.378Z,34.40
2018-03-04T15:09:31.916Z,38.17
2018-03-04T15:11:59.398Z,34.90
2018-03-04T15:14:26.861Z,34.50
2018-03-04T15:16:54.338Z,37.27
2018-03-04T15:19:22.494Z,33.77
2018-03-04T15:21:49.950Z,30.57
2018-03-04T15:24:17.412Z,36.57
2018-03-04T15:26:44.927Z,34.77
2018-03-04T15:29:12.483Z,47.57
2018-03-04T15:31:39.964Z,41.60
2018-03-04T15:34:07.454Z,37.77
2018-03-04T15:36:34.905Z,35.17
2018-03-04T15:39:02.424Z,35.47
2018-03-04T15:41:29.910Z,36.23
2018-03-04T15:43:57.640Z,36.60
2018-03-04T15:46:25.126Z,35.93
2018-03-04T15:48:52.592Z,38.63
2018-03-04T15:51:20.046Z,35.27
2018-03-04T15:53:47.545Z,38.07
2018-03-04T15:56:15.086Z,33.70
2018-03-04T15:58:42.531Z,33.47
2018-03-04T16:01:10.027Z,38.53
2018-03-04T16:03:37.501Z,37.77
2018-03-04T16:06:04.958Z,36.03
2018-03-04T16:08:32.451Z,34.40
2018-03-04T16:11:00.065Z,35.77
2018-03-04T16:13:27.591Z,35.83
2018-03-04T16:15:55.058Z,36.23
2018-03-04T16:18:22.527Z,34.83
2018-03-04T16:20:49.984Z,37.20
2018-03-04T16:23:17.527Z,35.83
2018-03-04T16:25:45.002Z,35.90
2018-03-04T16:28:12.468Z,35.10
2018-03-04T16:30:39.978Z,35.00
2018-03-04T16:33:07.441Z,36.00
2018-03-04T16:35:34.919Z,32.40
2018-03-04T16:38:02.427Z,31.37
2018-03-04T16:40:29.928Z,33.07
2018-03-04T16:42:57.389Z,35.20
2018-03-04T16:45:24.842Z,33.13
2018-03-04T16:47:52.354Z,35.40
2018-03-04T16:50:19.834Z,34.10
2018-03-04T16:52:47.420Z,36.40
2018-03-04T16:55:14.890Z,35.07
2018-03-04T16:57:42.383Z,33.23
2018-03-04T17:00:09.842Z,33.53
2018-03-04T17:02:37.326Z,33.20
2018-03-04T17:05:04.814Z,45.07
2018-03-04T17:07:32.316Z,34.17
2018-03-04T17:09:59.843Z,31.90
2018-03-04T17:12:27.323Z,32.83
2018-03-04T17:14:54.783Z,31.37
2018-03-04T17:17:22.250Z,31.27
2018-03-04T17:19:49.818Z,30.77
2018-03-04T17:22:17.283Z,33.40
2018-03-04T17:24:44.759Z,32.27
2018-03-04T17:27:12.242Z,31.57
2018-03-04T17:29:39.787Z,30.67
2018-03-04T17:32:07.357Z,30.90
2018-03-04T17:34:34.866Z,31.97
2018-03-04T17:37:02.388Z,30.77
2018-03-04T17:39:29.941Z,33.87
2018-03-04T17:41:57.438Z,31.50
2018-03-04T17:44:24.898Z,29.67
2018-03-04T17:46:52.355Z,32.13
2018-03-04T17:49:19.866Z,30.20
2018-03-04T17:51:47.326Z,29.97
2018-03-04T17:54:14.870Z,29.30
2018-03-04T17:56:42.337Z,29.50
2018-03-04T17:59:09.834Z,27.40
2018-03-04T18:01:37.315Z,28.80
2018-03-04T18:04:04.774Z,30.90
2018-03-04T18:06:32.269Z,31.10
2018-03-04T18:08:59.795Z,28.40
2018-03-04T18:11:27.300Z,31.67
2018-03-04T18:13:54.789Z,30.07
2018-03-04T18:16:22.256Z,29.97
2018-03-04T18:18:49.733Z,31.77
2018-03-04T18:21:17.278Z,29.80
2018-03-04T18:23:44.812Z,30.80
2018-03-04T18:26:12.267Z,31.87
2018-03-04T18:28:39.832Z,31.83
2018-03-04T18:31:07.291Z,38.70
2018-03-04T18:33:34.742Z,39.40
2018-03-04T18:36:02.232Z,33.03
2018-03-04T18:38:29.686Z,33.77
2018-03-04T18:40:57.165Z,29.20
2018-03-04T18:43:24.648Z,30.10
2018-03-04T18:45:52.104Z,30.67
2018-03-04T18:48:19.564Z,30.70
2018-03-04T18:50:47.031Z,32.93
2018-03-04T18:53:14.482Z,31.70
2018-03-04T18:55:42.167Z,33.20
2018-03-04T18:58:09.630Z,34.40
2018-03-04T19:00:37.099Z,32.93
2018-03-04T19:03:04.599Z,30.90
2018-03-04T19:05:32.067Z,34.90
2018-03-04T19:07:59.597Z,34.87
2018-03-04T19:10:27.054Z,37.70
2018-03-04T19:12:54.573Z,36.60
2018-03-04T19:15:22.054Z,35.20
2018-03-04T19:17:49.830Z,36.00
2018-03-04T19:20:17.294Z,38.90
2018-03-04T19:22:44.797Z,33.93
2018-03-04T19:25:12.266Z,35.53
2018-03-04T19:27:39.736Z,34.20
2018-03-04T19:30:07.202Z,35.10
2018-03-04T19:32:34.702Z,38.30
2018-03-04T19:35:02.276Z,39.57
2018-03-04T19:37:29.761Z,38.90
2018-03-04T19:39:57.294Z,37.80
2018-03-04T19:42:24.755Z,36.07
2018-03-04T19:44:52.235Z,35.57
2018-03-04T19:47:19.706Z,37.03
2018-03-04T19:49:47.951Z,36.30
2018-03-04T19:52:15.448Z,37.13
2018-03-04T19:54:42.936Z,37.00
2018-03-04T19:57:10.502Z,37.80
2018-03-04T20:02:11.804Z,39.07
2018-03-04T20:04:39.301Z,38.20
2018-03-04T20:07:06.767Z,40.00
2018-03-04T20:09:34.367Z,35.37
2018-03-04T20:12:01.844Z,37.00
2018-03-04T20:14:29.324Z,36.80
2018-03-04T20:16:56.878Z,38.00
2018-03-04T20:19:24.995Z,38.13
2018-03-04T20:21:52.466Z,40.00
2018-03-04T20:24:19.968Z,37.23
2018-03-04T20:26:47.429Z,39.03
2018-03-04T20:29:14.892Z,32.97
2018-03-04T20:31:42.483Z,38.43
2018-03-04T20:34:09.956Z,41.67
2018-03-04T20:36:37.417Z,38.27
2018-03-04T20:39:04.936Z,40.30
2018-03-04T20:41:32.390Z,38.93
2018-03-04T20:43:59.848Z,36.33
2018-03-04T20:46:27.331Z,38.80
2018-03-04T20:48:54.823Z,35.07
2018-03-04T20:51:22.326Z,38.30
2018-03-04T20:53:49.781Z,31.17
2018-03-04T20:56:17.241Z,38.00
2018-03-04T20:58:44.780Z,33.83
2018-03-04T21:01:12.241Z,39.03
2018-03-04T21:03:39.700Z,42.53
2018-03-04T21:06:07.168Z,37.97
2018-03-04T21:08:34.625Z,34.50
2018-03-04T21:11:02.132Z,38.50
2018-03-04T21:13:29.591Z,41.37
2018-03-04T21:15:57.164Z,37.20
2018-03-04T21:18:24.647Z,36.83
2018-03-04T21:20:52.125Z,33.87
2018-03-04T21:23:19.701Z,38.13
2018-03-04T21:25:47.359Z,35.60
2018-03-04T21:28:14.868Z,38.17
2018-03-04T21:30:42.338Z,34.63
2018-03-04T21:33:09.814Z,35.97
2018-03-04T21:35:37.297Z,37.93
2018-03-04T21:38:04.856Z,37.73
2018-03-04T21:40:32.338Z,35.27
2018-03-04T21:42:59.811Z,38.40
2018-03-04T21:45:27.278Z,39.97
2018-03-04T21:47:54.872Z,40.07
2018-03-04T21:50:22.334Z,40.53
2018-03-04T21:52:49.840Z,39.53
2018-03-04T21:55:17.329Z,35.00
2018-03-04T21:57:44.790Z,36.20
2018-03-04T22:00:12.262Z,34.90
2018-03-04T22:02:39.772Z,36.90
2018-03-04T22:05:07.230Z,32.53
2018-03-04T22:07:34.697Z,36.53
2018-03-04T22:10:02.207Z,34.43
2018-03-04T22:12:29.669Z,37.70
2018-03-04T22:14:57.223Z,37.63
2018-03-04T22:17:24.768Z,36.67
2018-03-04T22:19:52.235Z,34.87
2018-03-04T22:22:19.702Z,35.10
2018-03-04T22:24:47.231Z,31.27
2018-03-04T22:27:14.716Z,34.90
2018-03-04T22:29:42.256Z,33.50
2018-03-04T22:32:09.937Z,38.20
2018-03-04T22:34:37.402Z,37.10
2018-03-04T22:37:04.942Z,33.83
2018-03-04T22:39:32.422Z,32.47
2018-03-04T22:41:59.990Z,37.27
2018-03-04T22:44:27.450Z,43.03
2018-03-04T22:46:55.011Z,43.27
2018-03-04T22:49:22.462Z,36.03
2018-03-04T22:51:49.930Z,32.77
2018-03-04T22:54:17.411Z,35.43
2018-03-04T22:56:44.870Z,38.17
2018-03-04T22:59:12.358Z,34.40
2018-03-04T23:01:39.923Z,35.10
2018-03-04T23:04:07.378Z,36.77
2018-03-04T23:06:34.846Z,30.47
2018-03-04T23:09:02.323Z,36.57
2018-03-04T23:11:29.803Z,35.70
2018-03-04T23:13:57.254Z,34.87
2018-03-04T23:16:24.750Z,32.77
2018-03-04T23:18:53.018Z,36.93
2018-03-04T23:21:20.483Z,34.70
2018-03-04T23:23:48.010Z,37.13
2018-03-04T23:26:15.528Z,34.23
2018-03-04T23:28:43.036Z,35.53
2018-03-04T23:31:10.482Z,33.53
2018-03-04T23:33:38.015Z,32.40
2018-03-04T23:36:05.475Z,38.73
2018-03-04T23:38:32.939Z,35.60
2018-03-04T23:41:00.466Z,34.47
2018-03-04T23:43:27.923Z,33.03
2018-03-04T23:45:55.509Z,36.37
2018-03-04T23:48:23.043Z,36.50
2018-03-04T23:50:50.503Z,35.93
2018-03-04T23:53:17.988Z,35.10
2018-03-04T23:55:45.486Z,38.00
2018-03-04T23:58:12.976Z,35.47
